Time;durP1;ratioP1;P1;durP2;ratioP2;P2;SDS_P1;SDS_P2;PMS_P1;PMS_P2;Temp;Humidity;BMP_temperature;BMP_pressure;BME280_temperature;BME280_humidity;BME280_pressure;Samples;Min_cycle;Max_cycle;Signal;HPM_P1;HPM_P2
2022/12/18 00:01:17;;;;;;;6.22;4.60;;;;;;;18.78;52.41;102206.28;4976520;28;20047;-69
2022/12/18 00:03:46;;;;;;;6.82;4.55;;;;;;;18.76;52.25;102197.47;4976054;28;20046;-69
2022/12/18 00:06:14;;;;;;;7.10;5.18;;;;;;;18.79;52.31;102210.66;4975923;28;20062;-69
2022/12/18 00:08:43;;;;;;;5.28;4.13;;;;;;;18.77;52.09;102213.47;4976344;28;20050;-69
2022/12/18 00:11:14;;;;;;;5.78;3.78;;;;;;;18.78;53.09;102209.81;4975855;28;20058;-70
2022/12/18 00:13:43;;;;;;;5.93;4.43;;;;;;;18.78;51.04;102220.53;4976148;28;20224;-69
2022/12/18 00:16:13;;;;;;;6.95;4.43;;;;;;;18.79;53.09;102237.50;4976692;28;20047;-69
2022/12/18 00:18:41;;;;;;;6.50;4.53;;;;;;;18.77;53.98;102240.28;4976392;28;20046;-69
2022/12/18 00:21:11;;;;;;;5.68;3.85;;;;;;;18.78;53.70;102247.38;4976558;28;20065;-69
2022/12/18 00:23:40;;;;;;;6.38;4.53;;;;;;;18.77;53.99;102245.66;4976242;28;20402;-69
2022/12/18 00:26:12;;;;;;;5.50;4.07;;;;;;;18.77;54.28;102260.91;4976748;28;20095;-69
2022/12/18 00:28:39;;;;;;;5.40;4.20;;;;;;;18.76;54.11;102265.41;4974905;28;20054;-70
2022/12/18 00:31:10;;;;;;;4.88;3.67;;;;;;;18.76;53.85;102265.41;4976169;28;20050;-70
2022/12/18 00:33:38;;;;;;;5.35;4.25;;;;;;;18.76;53.76;102256.50;4976389;28;20047;-69
2022/12/18 00:36:09;;;;;;;7.88;4.45;;;;;;;18.74;53.84;102255.72;4974553;28;20043;-69
2022/12/18 00:38:37;;;;;;;5.63;4.28;;;;;;;18.76;53.58;102269.91;4958901;28;20101;-69
2022/12/18 00:41:07;;;;;;;5.65;4.10;;;;;;;18.75;53.29;102265.47;4976065;28;20050;-69
2022/12/18 00:43:36;;;;;;;6.05;4.07;;;;;;;18.73;53.11;102265.56;4974515;28;20054;-69
2022/12/18 00:46:04;;;;;;;5.75;3.65;;;;;;;18.74;53.14;102261.06;4974556;28;20055;-69
2022/12/18 00:48:32;;;;;;;6.93;4.30;;;;;;;18.74;53.32;102271.81;4976247;28;20038;-69
2022/12/18 00:51:00;;;;;;;6.65;4.03;;;;;;;18.74;53.11;102266.44;4974034;28;20058;-69
2022/12/18 00:53:27;;;;;;;5.13;3.70;;;;;;;18.74;52.95;102275.34;4975968;28;20051;-69
2022/12/18 00:55:55;;;;;;;6.05;3.83;;;;;;;18.74;52.88;102275.34;4974560;28;20065;-69
2022/12/18 00:58:23;;;;;;;6.07;4.15;;;;;;;18.74;52.50;102274.47;4975705;28;20063;-69
2022/12/18 01:00:50;;;;;;;4.30;3.33;;;;;;;18.74;52.71;102277.16;4974136;28;20054;-69
2022/12/18 01:03:17;;;;;;;4.47;3.65;;;;;;;18.74;52.69;102271.81;4975784;28;20053;-69
2022/12/18 01:05:45;;;;;;;5.25;4.18;;;;;;;18.74;52.24;102274.47;4975589;28;20490;-69
2022/12/18 01:08:12;;;;;;;5.88;3.70;;;;;;;18.72;52.46;102268.38;4975995;28;20053;-69
2022/12/18 01:10:43;;;;;;;4.47;3.72;;;;;;;18.72;52.28;102265.69;4974182;28;20051;-69
2022/12/18 01:13:11;;;;;;;5.53;4.13;;;;;;;18.73;52.15;102272.75;4975633;28;20054;-69
2022/12/18 01:15:39;;;;;;;6.60;4.00;;;;;;;18.71;52.09;102275.53;4975463;28;20047;-69
2022/12/18 01:18:10;;;;;;;5.45;3.80;;;;;;;18.71;52.07;102266.63;4975722;28;20051;-69
2022/12/18 01:20:38;;;;;;;6.57;3.63;;;;;;;18.71;52.00;102275.53;4975528;28;20051;-69
2022/12/18 01:23:05;;;;;;;5.80;3.30;;;;;;;18.72;52.05;102268.38;4974342;28;20061;-69
2022/12/18 01:25:36;;;;;;;5.07;3.30;;;;;;;18.71;51.87;102263.94;4975300;28;20050;-69
2022/12/18 01:28:03;;;;;;;5.50;3.47;;;;;;;18.71;51.98;102270.16;4973893;28;20610;-69
2022/12/18 01:30:32;;;;;;;4.65;3.50;;;;;;;18.70;52.02;102273.81;4975676;28;20043;-69
2022/12/18 01:32:59;;;;;;;7.20;3.55;;;;;;;18.70;51.91;102279.16;4975351;28;20046;-69
2022/12/18 01:35:26;;;;;;;6.32;3.80;;;;;;;18.70;51.86;102276.47;4973661;28;20384;-69
2022/12/18 01:37:54;;;;;;;5.00;3.63;;;;;;;18.70;51.70;102281.00;4975123;28;20056;-69
2022/12/18 01:40:22;;;;;;;5.57;3.53;;;;;;;18.71;51.85;102286.25;4975163;28;20046;-69
2022/12/18 01:42:53;;;;;;;5.53;3.80;;;;;;;18.71;51.90;102290.75;4972991;28;20051;-69
2022/12/18 01:45:25;;;;;;;3.67;3.05;;;;;;;18.71;51.82;102298.81;4973483;28;20058;-69
2022/12/18 01:47:55;;;;;;;4.50;3.25;;;;;;;18.71;51.80;102301.50;4975265;28;20058;-68
2022/12/18 01:50:31;;;;;;;4.82;3.92;;;;;;;18.71;51.76;102298.81;4975201;28;20042;-69
2022/12/18 01:53:05;;;;;;;4.70;3.15;;;;;;;18.70;51.69;102300.63;4975337;28;20069;-69
2022/12/18 01:55:40;;;;;;;5.13;3.65;;;;;;;18.70;51.74;102299.78;4973200;28;20050;-69
2022/12/18 01:58:07;;;;;;;4.63;3.28;;;;;;;18.71;51.64;102301.50;4973792;28;20058;-69
2022/12/18 02:00:35;;;;;;;6.40;3.47;;;;;;;18.71;51.64;102314.91;4973434;28;20059;-69
2022/12/18 02:03:02;;;;;;;4.03;3.10;;;;;;;18.71;51.58;102317.59;4973693;28;20055;-69
2022/12/18 02:05:38;;;;;;;5.72;4.07;;;;;;;18.71;51.55;102315.75;4975116;28;20043;-69
2022/12/18 02:08:16;;;;;;;4.00;3.10;;;;;;;18.71;51.56;102315.75;4973419;28;20047;-69
2022/12/18 02:11:02;;;;;;;5.35;3.30;;;;;;;18.72;51.70;102322.03;4973339;28;20065;-69
2022/12/18 02:13:49;;;;;;;4.82;3.45;;;;;;;18.71;51.42;102322.94;4973315;28;20075;-69
2022/12/18 02:16:19;;;;;;;4.18;3.05;;;;;;;18.72;51.62;102324.69;4973308;28;20066;-69
2022/12/18 02:18:57;;;;;;;4.95;3.75;;;;;;;18.71;51.46;102328.31;4973025;28;20483;-69
2022/12/18 02:21:42;;;;;;;5.20;3.72;;;;;;;18.71;51.34;102337.22;4975253;28;20055;-69
2022/12/18 02:24:39;;;;;;;4.03;3.20;;;;;;;18.71;51.50;102339.03;4972948;28;20050;-69
2022/12/18 02:27:09;;;;;;;4.28;3.53;;;;;;;18.72;51.34;102346.16;4974845;28;20054;-69
2022/12/18 02:29:48;;;;;;;4.78;3.75;;;;;;;18.71;51.38;102342.59;4973356;28;20050;-69
2022/12/18 02:32:30;;;;;;;4.00;2.92;;;;;;;18.70;51.30;102346.22;4973634;28;20057;-69
2022/12/18 02:34:59;;;;;;;4.93;3.10;;;;;;;18.71;51.31;102358.69;4973186;28;20055;-69
2022/12/18 02:37:30;;;;;;;5.35;3.70;;;;;;;18.71;51.26;102358.69;4973135;28;20051;-70
2022/12/18 02:40:03;;;;;;;5.00;3.58;;;;;;;18.70;51.32;102362.34;4972916;28;20055;-69
2022/12/18 02:42:33;;;;;;;4.78;3.83;;;;;;;18.71;51.40;102371.25;4974847;28;20047;-69
2022/12/18 02:45:03;;;;;;;6.10;3.50;;;;;;;18.70;51.37;102375.75;4973097;28;20058;-69
2022/12/18 02:47:36;;;;;;;5.80;3.40;;;;;;;18.70;51.32;102377.56;4972998;28;20505;-69
2022/12/18 02:50:30;;;;;;;4.50;3.53;;;;;;;18.70;51.44;102377.56;4972654;28;20062;-69
2022/12/18 02:53:15;;;;;;;4.65;3.55;;;;;;;18.70;51.41;102383.78;4973715;28;20051;-69
2022/12/18 02:55:45;;;;;;;7.28;3.75;;;;;;;18.70;51.28;102382.94;4976637;28;20054;-69
2022/12/18 02:58:21;;;;;;;4.00;2.75;;;;;;;18.70;51.54;102378.44;4976037;28;20410;-69
2022/12/18 03:01:01;;;;;;;5.22;3.88;;;;;;;18.69;51.34;102379.34;4976874;28;20466;-68
2022/12/18 03:03:39;;;;;;;4.35;2.97;;;;;;;18.70;51.51;102380.25;4960713;28;20059;-69
2022/12/18 03:06:33;;;;;;;5.60;3.58;;;;;;;18.70;51.19;102383.78;4976277;28;20541;-69
2022/12/18 03:09:09;;;;;;;5.03;3.35;;;;;;;18.69;51.57;102387.41;4975785;28;20061;-69
2022/12/18 03:14:30;;;;;;;4.05;2.88;;;;;;;18.69;51.38;102382.03;4975330;28;20047;-68
2022/12/18 03:17:02;;;;;;;5.30;3.42;;;;;;;18.69;51.32;102386.53;4976145;28;20055;-69
2022/12/18 03:19:33;;;;;;;5.75;3.53;;;;;;;18.69;51.17;102382.03;4960425;28;20599;-69
2022/12/18 03:22:06;;;;;;;6.83;3.13;;;;;;;18.69;51.14;102386.53;4976114;28;20062;-69
2022/12/18 03:24:46;;;;;;;5.68;3.80;;;;;;;18.69;51.20;102392.78;4976033;28;20475;-69
2022/12/18 03:27:16;;;;;;;4.72;3.40;;;;;;;18.68;51.26;102385.69;4978076;28;20051;-69
2022/12/18 03:29:46;;;;;;;4.88;3.25;;;;;;;18.69;51.21;102386.53;4976378;28;20391;-69
2022/12/18 03:32:29;;;;;;;4.88;3.17;;;;;;;18.70;51.13;102388.28;4975948;28;20054;-69
2022/12/18 03:35:03;;;;;;;5.18;3.30;;;;;;;18.69;51.12;102392.78;4977325;28;20043;-69
2022/12/18 03:37:33;;;;;;;4.20;3.13;;;;;;;18.70;51.11;102390.97;4975632;28;20055;-69
2022/12/18 03:40:01;;;;;;;4.25;2.95;;;;;;;18.69;50.94;102392.78;4977533;28;20442;-69
2022/12/18 03:42:52;;;;;;;4.35;3.35;;;;;;;18.69;50.93;102397.28;4975555;28;20047;-69
2022/12/18 03:45:37;;;;;;;3.78;2.83;;;;;;;18.69;50.94;102398.13;4976195;28;20047;-69
2022/12/18 03:48:15;;;;;;;4.35;3.28;;;;;;;18.69;51.13;102406.19;4975439;28;20058;-69
2022/12/18 03:50:57;;;;;;;4.55;3.22;;;;;;;18.69;51.00;102399.97;4975667;28;20046;-69
2022/12/18 03:53:39;;;;;;;4.65;3.10;;;;;;;18.70;50.95;102402.56;4975195;28;20055;-69
2022/12/18 03:56:09;;;;;;;5.82;3.58;;;;;;;18.69;51.02;102406.19;4975698;28;20043;-69
2022/12/18 03:58:43;;;;;;;4.45;3.20;;;;;;;18.70;51.15;102407.06;4975673;28;20508;-69
2022/12/18 04:01:19;;;;;;;3.97;3.03;;;;;;;18.70;51.00;102407.06;4975263;28;20135;-69
2022/12/18 04:03:49;;;;;;;3.88;2.78;;;;;;;18.70;50.95;102404.41;4974926;28;20066;-69
2022/12/18 04:06:20;;;;;;;5.53;3.30;;;;;;;18.69;50.94;102405.31;4974627;28;20467;-69
2022/12/18 04:08:47;;;;;;;5.32;3.25;;;;;;;18.70;51.07;102410.63;4974851;28;20051;-69
2022/12/18 04:11:19;;;;;;;5.13;2.97;;;;;;;18.71;51.19;102414.16;4975094;28;20050;-69
2022/12/18 04:13:47;;;;;;;4.68;3.10;;;;;;;18.70;51.04;102421.34;4975021;28;20051;-69
2022/12/18 04:16:21;;;;;;;4.82;3.28;;;;;;;18.71;50.96;102422.22;4975138;28;20058;-69
2022/12/18 04:18:53;;;;;;;4.63;3.25;;;;;;;18.71;51.12;102423.06;4974601;28;20051;-68
2022/12/18 04:21:22;;;;;;;4.40;3.35;;;;;;;18.71;51.07;102431.13;4974744;28;20050;-69
2022/12/18 04:23:50;;;;;;;4.80;3.25;;;;;;;18.71;51.07;102443.66;4974901;28;20061;-69
2022/12/18 04:26:20;;;;;;;4.80;3.28;;;;;;;18.71;51.08;102444.53;4974930;28;20053;-69
2022/12/18 04:29:19;;;;;;;4.20;3.00;;;;;;;18.70;51.01;102458.91;4955483;28;20427;-69
2022/12/18 04:31:47;;;;;;;7.22;3.33;;;;;;;18.71;51.08;102466.00;4938757;29;20063;-69
2022/12/18 04:34:15;;;;;;;5.15;3.03;;;;;;;18.71;51.08;102476.72;4938736;29;20055;-69
2022/12/18 04:36:49;;;;;;;6.20;3.30;;;;;;;18.70;50.91;102477.69;4938911;29;20527;-69
2022/12/18 04:39:17;;;;;;;4.28;3.00;;;;;;;18.70;50.99;102469.63;4938622;29;20528;-69
2022/12/18 04:41:45;;;;;;;6.00;3.55;;;;;;;18.70;50.90;102483.06;4922651;29;20066;-69
2022/12/18 04:44:13;;;;;;;6.35;3.45;;;;;;;18.71;50.79;102483.91;4938246;29;20061;-69
2022/12/18 04:46:41;;;;;;;6.10;3.08;;;;;;;18.71;50.82;102484.78;4954963;29;20074;-69
2022/12/18 04:49:10;;;;;;;4.10;2.97;;;;;;;18.71;50.84;102491.97;4938646;29;20055;-69
2022/12/18 04:51:37;;;;;;;5.43;3.08;;;;;;;18.72;50.61;102496.41;4954661;29;20166;-69
2022/12/18 04:54:04;;;;;;;5.85;3.00;;;;;;;18.72;50.71;102491.03;4954670;29;20051;-69
2022/12/18 04:56:32;;;;;;;4.50;2.90;;;;;;;18.71;50.65;102498.19;4938755;29;20051;-69
2022/12/18 04:59:00;;;;;;;4.90;3.10;;;;;;;18.71;50.53;102503.56;4954452;29;20267;-69
2022/12/18 05:01:27;;;;;;;3.58;2.80;;;;;;;18.73;50.64;102508.84;4954516;29;20054;-69
2022/12/18 05:04:01;;;;;;;4.13;3.08;;;;;;;18.72;50.44;102507.13;4955751;28;20546;-69
2022/12/18 05:06:29;;;;;;;3.17;2.35;;;;;;;18.71;50.50;102502.69;4975827;28;20467;-69
2022/12/18 05:08:56;;;;;;;5.05;2.72;;;;;;;18.72;50.46;102501.75;4975711;28;20050;-68
2022/12/18 05:11:23;;;;;;;5.13;2.83;;;;;;;18.71;50.38;102498.19;4975632;28;20051;-69
2022/12/18 05:13:51;;;;;;;3.88;2.75;;;;;;;18.70;50.39;102504.50;4975797;28;20053;-69
2022/12/18 05:16:18;;;;;;;3.58;2.75;;;;;;;18.71;50.36;102513.41;4974819;28;20047;-69
2022/12/18 05:18:54;;;;;;;3.47;2.40;;;;;;;18.70;50.37;102517.94;4975511;28;20057;-69
2022/12/18 05:21:22;;;;;;;4.07;2.90;;;;;;;18.72;50.39;102525.91;4975562;28;20407;-69
2022/12/18 05:23:49;;;;;;;5.95;3.75;;;;;;;18.70;50.28;102520.59;4975381;28;20051;-69
2022/12/18 05:26:17;;;;;;;5.07;3.20;;;;;;;18.71;50.31;102534.88;4975433;28;20043;-69
2022/12/18 05:28:45;;;;;;;5.38;3.30;;;;;;;18.70;50.39;102542.06;4975239;28;20046;-69
2022/12/18 05:31:14;;;;;;;4.50;3.10;;;;;;;18.71;50.27;102545.63;4975145;28;20046;-69
2022/12/18 05:33:41;;;;;;;4.50;2.85;;;;;;;18.70;50.23;102546.56;4975286;28;20073;-68
2022/12/18 05:36:09;;;;;;;3.60;2.70;;;;;;;18.71;50.30;102549.16;4975247;28;20471;-68
2022/12/18 05:38:38;;;;;;;5.88;3.00;;;;;;;18.71;50.39;102551.84;4975318;28;20046;-69
2022/12/18 05:41:06;;;;;;;5.20;2.90;;;;;;;18.71;50.02;102550.97;4975312;28;20050;-68
2022/12/18 05:43:36;;;;;;;4.38;3.30;;;;;;;18.71;50.22;102561.72;4975236;28;20050;-69
2022/12/18 05:46:06;;;;;;;3.92;2.92;;;;;;;18.70;50.24;102558.16;4975316;28;20046;-69
2022/12/18 05:48:34;;;;;;;4.07;2.88;;;;;;;18.70;50.31;102560.84;4975037;28;20069;-69
2022/12/18 05:51:07;;;;;;;3.88;2.58;;;;;;;18.71;50.18;102562.56;4975117;28;20505;-69
2022/12/18 05:53:36;;;;;;;4.43;2.85;;;;;;;18.70;50.28;102566.22;4975190;28;20514;-69
2022/12/18 05:56:06;;;;;;;4.85;3.20;;;;;;;18.71;50.19;102572.44;4975161;28;20050;-69
2022/12/18 05:58:34;;;;;;;4.47;3.17;;;;;;;18.71;50.13;102575.13;4975007;28;20059;-69
2022/12/18 06:01:19;;;;;;;4.45;3.20;;;;;;;18.70;50.03;102576.94;4975030;28;20046;-69
2022/12/18 06:03:46;;;;;;;4.65;3.33;;;;;;;18.71;50.08;102583.19;4974940;28;20481;-69
2022/12/18 06:06:15;;;;;;;3.63;2.70;;;;;;;18.70;50.00;102585.00;4975196;28;20054;-69
2022/12/18 06:08:43;;;;;;;4.88;2.50;;;;;;;18.70;49.89;102582.31;4975166;28;20054;-69
2022/12/18 06:11:17;;;;;;;3.42;2.60;;;;;;;18.70;49.98;102582.31;4974990;28;20046;-69
2022/12/18 06:13:44;;;;;;;4.53;3.08;;;;;;;18.70;49.92;102568.91;4975063;28;20051;-69
2022/12/18 06:16:12;;;;;;;4.03;2.90;;;;;;;18.71;49.93;102572.44;4974854;28;20039;-69
2022/12/18 06:18:40;;;;;;;3.70;2.83;;;;;;;18.69;49.92;102575.19;4974949;28;20051;-69
2022/12/18 06:21:07;;;;;;;3.45;2.35;;;;;;;18.71;49.84;102583.19;4974808;28;20074;-68
2022/12/18 06:23:35;;;;;;;4.88;3.50;;;;;;;18.70;49.91;102585.00;4974929;28;20047;-69
2022/12/18 06:26:08;;;;;;;6.25;3.10;;;;;;;18.71;49.84;102599.28;4974959;28;20047;-69
2022/12/18 06:28:36;;;;;;;4.00;2.83;;;;;;;18.70;50.00;102603.78;4976791;28;20050;-69
2022/12/18 06:31:04;;;;;;;3.70;2.53;;;;;;;18.70;49.83;102617.19;4978553;28;20047;-69
2022/12/18 06:33:32;;;;;;;4.07;2.97;;;;;;;18.70;49.84;102616.31;4978856;28;20475;-69
2022/12/18 06:36:02;;;;;;;3.95;2.85;;;;;;;18.70;50.02;102617.19;4978368;28;20047;-69
2022/12/18 06:38:31;;;;;;;3.85;2.67;;;;;;;18.70;49.89;102622.56;4978858;28;20047;-68
2022/12/18 06:41:00;;;;;;;3.45;2.70;;;;;;;18.70;49.90;102627.94;4978550;28;20054;-69
2022/12/18 06:43:27;;;;;;;4.25;2.67;;;;;;;18.71;49.79;102628.78;4978328;28;20047;-69
2022/12/18 06:45:59;;;;;;;4.82;2.80;;;;;;;18.70;49.95;102632.44;4978337;28;20050;-69
2022/12/18 06:48:27;;;;;;;3.43;2.87;;;;;;;18.71;49.76;102639.50;4978631;28;20047;-69
2022/12/18 06:50:54;;;;;;;3.83;2.55;;;;;;;18.71;49.92;102642.19;4978387;28;20058;-69
2022/12/18 06:53:22;;;;;;;3.92;2.97;;;;;;;18.70;49.83;102640.47;4978441;28;20057;-68
2022/12/18 06:55:50;;;;;;;7.85;3.17;;;;;;;18.70;49.86;102635.97;4978043;28;20054;-69
2022/12/18 06:58:17;;;;;;;3.88;2.90;;;;;;;18.70;49.83;102644.03;4978319;28;20109;-69
2022/12/18 07:00:45;;;;;;;5.10;3.28;;;;;;;18.69;49.90;102639.56;4978026;28;20051;-69
2022/12/18 07:03:12;;;;;;;3.60;2.47;;;;;;;18.70;49.94;102652.06;4977904;28;20050;-69
2022/12/18 07:05:40;;;;;;;4.15;2.85;;;;;;;18.70;49.91;102657.44;4977983;28;20047;-69
2022/12/18 07:08:08;;;;;;;3.20;2.50;;;;;;;18.70;49.91;102661.94;4977873;28;20050;-69
2022/12/18 07:10:43;;;;;;;3.15;2.17;;;;;;;18.70;49.91;102664.63;4977968;28;20051;-69
2022/12/18 07:13:16;;;;;;;3.88;2.95;;;;;;;18.70;49.95;102662.81;4977799;28;20057;-69
2022/12/18 07:15:44;;;;;;;3.70;2.33;;;;;;;18.71;49.86;102669.88;4977764;28;20058;-69
2022/12/18 07:18:11;;;;;;;3.90;2.70;;;;;;;18.71;50.04;102682.44;4977668;28;20050;-69
2022/12/18 07:20:39;;;;;;;3.15;2.33;;;;;;;18.69;49.94;102679.81;4977567;28;20062;-68
2022/12/18 07:23:06;;;;;;;3.58;2.55;;;;;;;18.71;49.96;102685.13;4977571;28;20047;-68
2022/12/18 07:25:36;;;;;;;3.88;2.63;;;;;;;18.70;50.04;102675.34;4977677;28;20047;-69
2022/12/18 07:28:04;;;;;;;3.88;2.70;;;;;;;18.71;49.97;102683.31;4977574;28;20394;-69
2022/12/18 07:30:31;;;;;;;3.78;2.78;;;;;;;18.70;49.96;102686.09;4977699;28;20051;-69
2022/12/18 07:32:59;;;;;;;3.92;2.63;;;;;;;18.71;49.99;102675.25;4977502;28;20047;-69
2022/12/18 07:35:26;;;;;;;2.88;2.15;;;;;;;18.70;49.89;102676.22;4977385;28;20057;-69
2022/12/18 07:37:53;;;;;;;3.90;2.80;;;;;;;18.72;49.99;102684.19;4976347;28;20047;-69
2022/12/18 07:40:20;;;;;;;5.32;2.78;;;;;;;18.70;49.83;102686.94;4976355;28;20046;-69
2022/12/18 07:42:48;;;;;;;5.30;3.13;;;;;;;18.71;49.66;102691.34;4977228;28;20050;-69
2022/12/18 07:45:15;;;;;;;4.25;2.95;;;;;;;18.70;49.76;102689.63;4977550;28;20046;-69
2022/12/18 07:47:43;;;;;;;4.13;3.10;;;;;;;18.71;49.87;102702.09;4977307;28;20046;-69
2022/12/18 07:50:10;;;;;;;3.45;2.92;;;;;;;18.71;49.99;102703.91;4977374;28;20051;-69
2022/12/18 07:52:38;;;;;;;3.40;2.90;;;;;;;18.71;49.77;102702.09;4977180;28;20043;-69
2022/12/18 07:55:05;;;;;;;3.40;2.72;;;;;;;18.72;49.76;102705.66;4977097;28;20050;-69
2022/12/18 07:57:34;;;;;;;4.70;3.08;;;;;;;18.71;49.95;102702.09;4975041;28;20054;-69
2022/12/18 08:00:17;;;;;;;3.50;2.58;;;;;;;18.71;49.82;102698.53;4976893;28;20054;-69
2022/12/18 08:02:44;;;;;;;4.82;2.50;;;;;;;18.71;49.77;102707.44;4976869;28;20046;-69
2022/12/18 08:05:13;;;;;;;4.20;2.70;;;;;;;18.71;49.83;102706.59;4976639;28;20066;-69
2022/12/18 08:07:40;;;;;;;3.85;2.75;;;;;;;18.71;49.78;102703.91;4976985;28;20050;-69
2022/12/18 08:10:08;;;;;;;4.85;2.70;;;;;;;18.71;49.64;102710.13;4976827;28;20049;-69
2022/12/18 08:12:35;;;;;;;4.05;2.53;;;;;;;18.71;49.64;102714.63;4976394;28;20054;-69
2022/12/18 08:15:03;;;;;;;4.93;2.92;;;;;;;18.71;49.72;102726.22;4976647;28;20046;-69
2022/12/18 08:17:31;;;;;;;3.50;2.75;;;;;;;18.71;49.76;102739.66;4976592;28;20390;-69
2022/12/18 08:19:58;;;;;;;3.78;3.05;;;;;;;18.71;49.71;102738.78;4975052;28;20062;-69
2022/12/18 08:22:25;;;;;;;4.07;2.83;;;;;;;18.72;49.50;102745.91;4976572;28;20054;-68
2022/12/18 08:24:53;;;;;;;5.30;3.10;;;;;;;18.70;49.51;102748.66;4974685;28;20054;-69
2022/12/18 08:27:20;;;;;;;3.58;2.67;;;;;;;18.71;49.67;102752.19;4976238;28;20050;-69
2022/12/18 08:29:56;;;;;;;3.78;2.78;;;;;;;18.70;49.82;102762.06;4976584;28;20387;-69
2022/12/18 08:32:26;;;;;;;3.72;2.78;;;;;;;18.72;49.70;102764.69;4976578;28;20073;-68
2022/12/18 08:34:53;;;;;;;3.33;2.58;;;;;;;18.72;49.56;102770.06;4976107;28;20051;-69
2022/12/18 08:37:21;;;;;;;3.15;2.47;;;;;;;18.71;49.63;102770.97;4974740;28;20053;-69
2022/12/18 08:39:48;;;;;;;4.35;3.20;;;;;;;18.72;49.16;102778.97;4976013;28;20050;-69
2022/12/18 08:45:02;;;;;;;4.15;3.33;;;;;;;18.73;49.25;102786.06;4976136;28;20046;-69
2022/12/18 08:47:30;;;;;;;4.65;2.70;;;;;;;18.74;49.04;102792.28;4976208;28;20051;-69
2022/12/18 08:49:57;;;;;;;3.10;2.33;;;;;;;18.74;48.99;102797.66;4975831;28;20562;-68
2022/12/18 08:52:24;;;;;;;4.95;2.92;;;;;;;18.74;49.62;102805.72;4975966;28;20046;-70
2022/12/18 08:54:52;;;;;;;3.67;2.60;;;;;;;18.74;49.56;102814.63;4975900;28;20046;-69
2022/12/18 08:57:19;;;;;;;5.32;2.67;;;;;;;18.75;49.57;102804.75;4975673;28;20521;-69
2022/12/18 08:59:46;;;;;;;5.38;2.88;;;;;;;18.77;49.52;102813.59;4974354;28;20050;-69
2022/12/18 09:02:13;;;;;;;4.38;2.78;;;;;;;18.77;49.49;102808.25;4975901;28;20047;-69
2022/12/18 09:04:41;;;;;;;3.40;2.67;;;;;;;18.77;48.65;102811.78;4974538;28;20066;-69
2022/12/18 09:07:08;;;;;;;5.43;2.83;;;;;;;18.78;48.80;102818.88;4975610;28;20047;-69
2022/12/18 09:09:36;;;;;;;4.25;3.47;;;;;;;18.80;48.28;102826.88;4975545;28;20057;-69
2022/12/18 09:12:03;;;;;;;3.60;2.72;;;;;;;18.81;49.10;102822.38;4976169;28;20467;-69
2022/12/18 09:14:30;;;;;;;3.17;2.60;;;;;;;18.82;48.23;102827.63;4976112;28;20109;-69
2022/12/18 09:16:58;;;;;;;4.75;3.05;;;;;;;18.83;48.70;102828.50;4975705;28;20386;-69
2022/12/18 09:19:26;;;;;;;3.97;2.53;;;;;;;18.84;48.34;102824.88;4975509;28;20498;-69
2022/12/18 09:21:53;;;;;;;5.88;2.55;;;;;;;18.84;48.02;102819.50;4975903;28;20055;-69
2022/12/18 09:24:21;;;;;;;4.45;2.78;;;;;;;18.85;48.09;102823.94;4975416;28;20482;-69
2022/12/18 09:26:52;;;;;;;5.63;2.92;;;;;;;18.86;47.96;102833.72;4975835;28;20051;-69
2022/12/18 09:29:24;;;;;;;3.90;2.47;;;;;;;18.86;47.78;102833.72;4975480;28;20058;-69
2022/12/18 09:31:51;;;;;;;4.00;2.80;;;;;;;18.86;47.91;102831.03;4975282;28;20046;-69
2022/12/18 09:34:21;;;;;;;3.70;2.80;;;;;;;18.87;47.74;102827.41;4975515;28;20047;-69
2022/12/18 09:36:49;;;;;;;3.95;2.70;;;;;;;18.87;47.59;102832.75;4975099;28;20046;-69
2022/12/18 09:39:16;;;;;;;4.85;3.10;;;;;;;18.87;47.48;102824.72;4975144;28;20062;-69
2022/12/18 09:41:56;;;;;;;4.03;3.00;;;;;;;18.88;47.02;102829.13;4975366;28;20054;-69
2022/12/18 09:44:36;;;;;;;3.63;2.70;;;;;;;18.87;47.53;102824.72;4975241;28;20053;-69
2022/12/18 09:47:14;;;;;;;3.97;2.80;;;;;;;18.88;47.40;102823.75;4975319;28;20058;-69
2022/12/18 09:49:48;;;;;;;4.82;2.67;;;;;;;18.88;47.68;102824.66;4975320;28;20043;-69
2022/12/18 09:52:35;;;;;;;3.95;2.78;;;;;;;18.90;47.17;102840.66;4975432;28;20057;-69
2022/12/18 09:55:24;;;;;;;5.68;2.92;;;;;;;18.88;46.51;102827.34;4975068;28;20049;-69
2022/12/18 09:57:57;;;;;;;6.32;2.90;;;;;;;18.88;47.13;102816.59;4974848;28;20058;-69
2022/12/18 10:00:25;;;;;;;3.05;2.45;;;;;;;18.89;47.95;102809.41;4975216;28;20043;-69
2022/12/18 10:02:59;;;;;;;4.57;2.95;;;;;;;18.91;48.02;102812.88;4975710;28;20053;-69
2022/12/18 10:06:01;;;;;;;5.28;2.92;;;;;;;18.92;47.66;102811.91;4978969;28;20509;-69
2022/12/18 10:09:02;;;;;;;4.38;2.90;;;;;;;18.91;47.54;102804.81;4978853;28;20047;-71
2022/12/18 10:11:48;;;;;;;6.40;3.92;;;;;;;18.91;45.67;102808.38;4978974;28;20043;-72
2022/12/18 10:14:34;;;;;;;5.78;3.20;;;;;;;18.90;45.62;102803.94;4979590;28;20053;-70
2022/12/18 10:17:20;;;;;;;6.70;4.40;;;;;;;18.89;43.79;102802.22;4978906;28;20050;-69
2022/12/18 10:20:14;;;;;;;10.27;3.90;;;;;;;18.90;45.48;102808.47;4978896;28;20069;-69
2022/12/18 10:23:00;;;;;;;6.75;4.07;;;;;;;18.91;45.15;102804.81;4930458;29;20491;-68
2022/12/18 10:25:45;;;;;;;5.43;3.78;;;;;;;18.90;44.46;102805.78;4959241;29;20047;-68
2022/12/18 10:28:15;;;;;;;6.43;4.03;;;;;;;18.90;44.53;102803.94;4959330;29;20043;-69
2022/12/18 10:30:43;;;;;;;6.10;4.18;;;;;;;18.88;43.78;102803.19;4959406;29;20055;-67
2022/12/18 10:33:17;;;;;;;4.25;3.20;;;;;;;18.89;44.77;102796.00;4958923;29;20059;-68
2022/12/18 10:35:46;;;;;;;5.13;3.35;;;;;;;18.88;44.05;102800.50;4959223;29;20047;-69
2022/12/18 10:38:14;;;;;;;7.35;3.50;;;;;;;18.88;43.89;102794.22;4958745;29;20486;-69
2022/12/18 10:40:53;;;;;;;5.93;3.33;;;;;;;18.87;43.59;102787.13;4974191;28;20144;-68
2022/12/18 10:43:31;;;;;;;8.88;3.58;;;;;;;18.86;44.00;102788.09;4973667;28;20055;-69
2022/12/18 10:46:07;;;;;;;4.80;3.38;;;;;;;18.88;45.57;102791.56;4958692;29;20058;-68
2022/12/18 10:48:46;;;;;;;6.80;3.42;;;;;;;18.88;44.73;102791.56;4959246;29;20054;-69
2022/12/18 10:51:27;;;;;;;6.55;3.75;;;;;;;18.88;44.80;102788.88;4963194;28;20054;-69
2022/12/18 10:54:01;;;;;;;9.27;4.32;;;;;;;18.90;43.74;102792.34;4977935;28;20058;-69
2022/12/18 10:56:33;;;;;;;9.35;4.10;;;;;;;18.91;42.77;102784.22;4977361;28;20414;-68
2022/12/18 10:59:12;;;;;;;8.43;4.40;;;;;;;18.89;41.79;102785.25;4958281;29;20059;-71
2022/12/18 11:01:51;;;;;;;6.20;4.30;;;;;;;18.83;40.08;102790.94;4977439;28;20061;-70
2022/12/18 11:04:30;;;;;;;9.43;4.10;;;;;;;18.80;42.93;102791.97;4996921;28;20065;-70
2022/12/18 11:07:02;;;;;;;5.28;3.35;;;;;;;18.81;44.21;102787.47;4996609;28;20394;-69
2022/12/18 11:09:32;;;;;;;4.80;3.60;;;;;;;18.81;44.73;102787.47;4990413;28;20035;-70
2022/12/18 11:12:14;;;;;;;5.47;3.50;;;;;;;18.83;44.60;102790.94;4962904;28;20058;-69
2022/12/18 11:14:45;;;;;;;4.55;3.15;;;;;;;18.83;44.39;102790.94;4960569;28;20043;-69
2022/12/18 11:17:21;;;;;;;7.40;3.70;;;;;;;18.84;45.46;102780.13;4976178;28;20050;-69
2022/12/18 11:20:06;;;;;;;8.63;3.88;;;;;;;18.85;45.07;102781.88;4976614;28;20051;-69
2022/12/18 11:22:36;;;;;;;4.47;3.17;;;;;;;18.87;45.11;102793.38;4977198;28;20047;-69
2022/12/18 11:25:17;;;;;;;7.82;3.55;;;;;;;18.88;44.90;102788.88;4976721;28;20051;-69
2022/12/18 11:28:24;;;;;;;8.23;2.88;;;;;;;18.87;45.00;102796.06;4976920;28;20387;-69
2022/12/18 11:31:16;;;;;;;5.10;3.17;;;;;;;18.89;45.50;102791.50;4977125;28;20088;-69
2022/12/18 11:34:10;;;;;;;4.22;3.20;;;;;;;18.91;45.33;102786.91;4975799;28;20046;-69
2022/12/18 11:36:59;;;;;;;5.53;3.22;;;;;;;18.92;45.39;102790.44;4976938;28;20050;-69
2022/12/18 11:39:32;;;;;;;8.88;3.70;;;;;;;18.92;45.66;102791.34;4976434;28;20054;-74
2022/12/18 11:42:20;;;;;;;;;;;;;;;18.94;45.76;102784.06;4991913;28;20054;-69
2022/12/18 11:44:58;;;;;;;6.15;3.33;;;;;;;18.95;45.72;102791.16;4976421;28;19922;-69
2022/12/18 11:47:39;;;;;;;4.40;2.95;;;;;;;18.95;45.11;102792.97;4977151;28;20062;-69
2022/12/18 11:51:02;;;;;;;6.55;3.35;;;;;;;18.95;45.11;102795.66;4976337;28;20407;-69
2022/12/18 11:53:30;;;;;;;7.53;3.00;;;;;;;18.94;46.06;102789.41;4912965;29;20064;-69